Time;durP1;ratioP1;P1;durP2;ratioP2;P2;SDS_P1;SDS_P2;PMS_P1;PMS_P2;Temp;Humidity;BMP_temperature;BMP_pressure;BME280_temperature;BME280_humidity;BME280_pressure;Samples;Min_cycle;Max_cycle;Signal;HPM_P1;HPM_P2
2022/03/02 00:01:10;;;;;;;27.48;15.85;;;;;;;-144.19;100.00;78611.13;6190252;23;20330;-88
2022/03/02 00:03:36;;;;;;;23.20;14.40;;;;;;;-144.19;100.00;78607.19;6215175;23;20512;-87
2022/03/02 00:06:03;;;;;;;25.60;15.80;;;;;;;-144.19;100.00;78607.19;6189469;23;20023;-88
2022/03/02 00:08:29;;;;;;;24.90;14.77;;;;;;;-144.19;100.00;78624.94;6189494;23;20020;-87
2022/03/02 00:10:55;;;;;;;21.23;14.87;;;;;;;-144.19;100.00;78642.66;6216149;23;20029;-87
2022/03/02 00:13:22;;;;;;;26.48;16.75;;;;;;;-144.19;100.00;78642.66;6191833;23;20020;-87
2022/03/02 00:15:48;;;;;;;27.67;16.15;;;;;;;-144.19;100.00;78650.53;6216110;23;20021;-87
2022/03/02 00:18:14;;;;;;;26.57;15.57;;;;;;;-144.19;100.00;78648.56;6215619;23;20027;-87
2022/03/02 00:20:41;;;;;;;29.33;16.90;;;;;;;-144.19;100.00;78646.59;6214321;23;20024;-88
2022/03/02 00:23:07;;;;;;;29.23;16.35;;;;;;;-144.19;100.00;78636.75;6188263;23;20024;-87
2022/03/02 00:25:34;;;;;;;27.77;17.13;;;;;;;-144.19;100.00;78622.97;6189281;23;20356;-87
2022/03/02 00:28:00;;;;;;;25.77;15.63;;;;;;;-144.19;100.00;78619.03;6215500;23;20436;-87
2022/03/02 00:30:28;;;;;;;27.77;16.57;;;;;;;-144.19;100.00;78626.91;6188627;23;20020;-88
2022/03/02 00:32:55;;;;;;;26.83;16.45;;;;;;;-144.19;100.00;78634.78;6187867;23;20246;-88
2022/03/02 00:35:21;;;;;;;28.15;15.98;;;;;;;-144.19;100.00;78644.63;6188373;23;20369;-87
2022/03/02 00:37:48;;;;;;;30.05;17.30;;;;;;;-144.19;100.00;78646.59;6214623;23;20016;-85
2022/03/02 00:40:14;;;;;;;24.15;15.88;;;;;;;-144.19;100.00;78642.66;6188924;23;20021;-89
2022/03/02 00:42:41;;;;;;;23.30;15.67;;;;;;;-144.19;100.00;78648.56;6187439;23;20472;-86
2022/03/02 00:45:07;;;;;;;25.23;16.03;;;;;;;-144.19;100.00;78644.63;6214788;23;20095;-86
2022/03/02 00:47:34;;;;;;;25.70;16.17;;;;;;;-144.19;100.00;78652.50;6186855;23;20502;-88
2022/03/02 00:50:00;;;;;;;25.95;15.23;;;;;;;-144.19;100.00;78650.53;6214180;23;20357;-88
2022/03/02 00:52:27;;;;;;;21.83;14.85;;;;;;;-144.19;100.00;78642.66;6214376;23;20020;-89
2022/03/02 00:54:53;;;;;;;27.65;16.60;;;;;;;-144.19;100.00;78658.41;6188341;23;20353;-87
2022/03/02 00:57:20;;;;;;;26.05;16.25;;;;;;;-144.19;100.00;78654.47;6187716;23;20027;-89
2022/03/02 00:59:47;;;;;;;25.05;15.95;;;;;;;-144.19;100.00;78644.63;6188404;23;20025;-88
2022/03/02 01:02:13;;;;;;;28.40;16.83;;;;;;;-144.19;100.00;78634.78;6214456;23;20722;-88
2022/03/02 01:04:40;;;;;;;28.58;15.93;;;;;;;-144.19;100.00;78634.78;6188467;23;20032;-87
2022/03/02 01:07:07;;;;;;;26.45;16.17;;;;;;;-144.19;100.00;78658.41;6214819;23;20020;-87
2022/03/02 01:09:33;;;;;;;25.17;16.60;;;;;;;-144.19;100.00;78668.25;6187463;23;20016;-86
2022/03/02 01:12:00;;;;;;;25.17;16.15;;;;;;;-144.19;100.00;78668.25;6213483;23;20091;-87
2022/03/02 01:14:26;;;;;;;26.23;16.40;;;;;;;-144.19;100.00;78672.19;6187605;23;20021;-86
2022/03/02 01:16:52;;;;;;;22.27;14.23;;;;;;;-144.19;100.00;78662.34;6187455;23;20016;-86
2022/03/02 01:19:19;;;;;;;28.17;14.83;;;;;;;-144.19;100.00;78658.41;6187203;23;20445;-87
2022/03/02 01:21:46;;;;;;;25.42;16.42;;;;;;;-144.19;100.00;78682.03;6188155;23;20021;-88
2022/03/02 01:24:12;;;;;;;23.80;14.57;;;;;;;-144.19;100.00;78666.28;6188100;23;20043;-87
2022/03/02 01:26:38;;;;;;;25.83;15.80;;;;;;;-144.19;100.00;78660.38;6188206;23;20013;-89
2022/03/02 01:29:05;;;;;;;26.90;16.47;;;;;;;-144.19;100.00;78656.44;6189631;23;20484;-86
2022/03/02 01:31:32;;;;;;;27.38;16.02;;;;;;;-144.19;100.00;78656.44;6189840;23;20356;-88
2022/03/02 01:33:58;;;;;;;26.63;15.70;;;;;;;-144.19;100.00;78656.44;6213829;23;20522;-88
2022/03/02 01:36:25;;;;;;;24.07;16.47;;;;;;;-144.19;100.00;78660.38;6187385;23;20027;-87
2022/03/02 01:38:52;;;;;;;25.83;16.35;;;;;;;-144.19;100.00;78678.09;6187906;23;20461;-88
2022/03/02 01:41:21;;;;;;;26.00;15.70;;;;;;;-144.19;100.00;78685.97;6189749;23;20031;-87
2022/03/02 01:43:49;;;;;;;27.42;17.20;;;;;;;-144.19;100.00;78670.22;6189658;23;20020;-88
2022/03/02 01:46:17;;;;;;;24.98;15.85;;;;;;;-144.19;100.00;78674.16;6190103;23;20016;-88
2022/03/02 01:48:44;;;;;;;27.25;16.05;;;;;;;-144.19;100.00;78676.13;6216627;23;20035;-87
2022/03/02 01:51:11;;;;;;;24.20;15.27;;;;;;;-144.19;100.00;78684.00;6189422;23;20027;-88
2022/03/02 01:53:39;;;;;;;24.83;15.70;;;;;;;-144.19;100.00;78691.88;6190035;23;20020;-86
2022/03/02 01:56:06;;;;;;;24.90;16.67;;;;;;;-144.19;100.00;78689.91;6189242;23;20059;-88
2022/03/02 01:58:32;;;;;;;26.55;17.45;;;;;;;-144.19;100.00;78689.91;6188714;23;20024;-86
2022/03/02 02:01:00;;;;;;;25.85;15.70;;;;;;;-144.19;100.00;78685.97;6190469;23;20027;-86
2022/03/02 02:03:27;;;;;;;26.48;16.02;;;;;;;-144.19;100.00;78682.03;6189545;23;20027;-86
2022/03/02 02:05:54;;;;;;;25.65;15.73;;;;;;;-144.19;100.00;78689.91;6215738;23;20034;-88
2022/03/02 02:08:21;;;;;;;25.83;15.68;;;;;;;-144.19;100.00;78689.91;6216077;23;20024;-87
2022/03/02 02:10:48;;;;;;;26.35;16.17;;;;;;;-144.19;100.00;78697.78;6189202;23;20333;-87
2022/03/02 02:13:14;;;;;;;26.67;15.98;;;;;;;-144.19;100.00;78705.66;6188707;23;20025;-86
2022/03/02 02:15:41;;;;;;;25.47;15.80;;;;;;;-144.19;100.00;78695.81;6190232;23;20298;-88
2022/03/02 02:18:08;;;;;;;28.02;16.15;;;;;;;-144.19;100.00;78701.72;6216464;23;20021;-86
2022/03/02 02:20:36;;;;;;;;;;;;;;;-144.19;100.00;78691.88;6190102;23;20043;-87
2022/03/02 02:23:04;;;;;;;26.42;15.60;;;;;;;-144.19;100.00;78689.91;6215464;23;19922;-86
2022/03/02 02:25:30;;;;;;;26.35;15.73;;;;;;;-144.19;100.00;78693.84;6189175;23;20027;-88
2022/03/02 02:27:57;;;;;;;24.20;15.53;;;;;;;-144.19;100.00;78701.72;6216017;23;20023;-87
2022/03/02 02:30:24;;;;;;;23.65;15.63;;;;;;;-144.19;100.00;78697.78;6189313;23;20024;-85
2022/03/02 02:32:50;;;;;;;27.17;15.43;;;;;;;-144.19;100.00;78689.91;6189219;23;20359;-86
2022/03/02 02:35:17;;;;;;;26.33;16.53;;;;;;;-144.19;100.00;78682.03;6189543;23;20020;-86
2022/03/02 02:37:44;;;;;;;30.00;17.60;;;;;;;-144.19;100.00;78678.09;6188069;23;20017;-87
2022/03/02 02:40:12;;;;;;;;;;;;;;;-144.19;100.00;78678.09;6189519;23;20020;-88
2022/03/02 02:42:41;;;;;;;24.70;15.98;;;;;;;-144.19;100.00;78703.72;6187964;23;19922;-87
2022/03/02 02:45:08;;;;;;;26.90;16.02;;;;;;;-144.19;100.00;78705.66;6188390;23;20020;-88
2022/03/02 02:47:34;;;;;;;28.33;16.23;;;;;;;-144.19;100.00;78709.63;6188225;23;20386;-86
2022/03/02 02:50:13;;;;;;;27.70;16.90;;;;;;;-144.19;100.00;78709.63;6214431;23;20016;-87
2022/03/02 02:52:40;;;;;;;26.55;16.88;;;;;;;-144.19;100.00;78705.66;6186738;23;20016;-87
2022/03/02 02:55:11;;;;;;;26.60;16.33;;;;;;;-144.19;100.00;78721.44;6214649;23;20020;-86
2022/03/02 02:57:37;;;;;;;26.58;16.58;;;;;;;-144.19;100.00;78721.44;6186974;23;20013;-87
2022/03/02 03:00:08;;;;;;;27.75;16.00;;;;;;;-144.19;100.00;78717.50;6188627;23;20086;-85
2022/03/02 03:02:34;;;;;;;26.88;15.38;;;;;;;-144.19;100.00;78715.53;6214221;23;20025;-88
2022/03/02 03:05:01;;;;;;;27.53;17.17;;;;;;;-144.19;100.00;78709.63;6188140;23;20020;-86
2022/03/02 03:07:28;;;;;;;28.42;17.92;;;;;;;-144.19;100.00;78713.56;6188587;23;20609;-86
2022/03/02 03:09:54;;;;;;;22.48;15.00;;;;;;;-144.19;100.00;78723.41;6213736;23;20150;-86
2022/03/02 03:12:20;;;;;;;25.73;15.90;;;;;;;-144.19;100.00;78721.44;6187064;23;20020;-86
2022/03/02 03:14:47;;;;;;;25.90;17.10;;;;;;;-144.19;100.00;78721.44;6188374;23;20027;-86
2022/03/02 03:17:13;;;;;;;29.20;19.15;;;;;;;-144.19;100.00;78717.50;6188388;23;20264;-86
2022/03/02 03:19:40;;;;;;;26.88;16.27;;;;;;;-144.19;100.00;78723.41;6213977;23;20093;-86
2022/03/02 03:22:07;;;;;;;25.87;16.27;;;;;;;-144.19;100.00;78721.44;6188032;23;20091;-87
2022/03/02 03:24:34;;;;;;;26.60;17.13;;;;;;;-144.19;100.00;78713.56;6188298;23;20399;-86
2022/03/02 03:27:01;;;;;;;27.35;17.05;;;;;;;-144.19;100.00;78709.63;6187771;23;20023;-86
2022/03/02 03:29:27;;;;;;;30.33;18.35;;;;;;;-144.19;100.00;78705.66;6214698;23;20027;-86
2022/03/02 03:31:54;;;;;;;27.92;16.67;;;;;;;-144.19;100.00;78697.78;6187768;23;20025;-89
2022/03/02 03:34:20;;;;;;;28.10;17.37;;;;;;;-144.19;100.00;78697.78;6188138;23;20021;-87
2022/03/02 03:36:47;;;;;;;31.20;18.97;;;;;;;-144.19;100.00;78695.81;6187532;23;20373;-86
2022/03/02 03:39:13;;;;;;;31.20;17.73;;;;;;;-144.19;100.00;78697.78;6188008;23;20043;-87
2022/03/02 03:41:40;;;;;;;34.47;19.13;;;;;;;-144.19;100.00;78684.00;6187372;23;20016;-85
2022/03/02 03:44:06;;;;;;;28.57;18.80;;;;;;;-144.19;100.00;78674.16;6187988;23;20021;-87
2022/03/02 03:46:32;;;;;;;31.63;19.95;;;;;;;-144.19;100.00;78674.16;6214269;23;20252;-87
2022/03/02 03:48:59;;;;;;;31.60;18.97;;;;;;;-144.19;100.00;78674.16;6187994;23;20020;-87
2022/03/02 03:51:25;;;;;;;30.03;18.33;;;;;;;-144.19;100.00;78676.13;6213588;23;20031;-86
2022/03/02 03:53:52;;;;;;;28.58;17.42;;;;;;;-144.19;100.00;78670.22;6187566;23;20099;-87
2022/03/02 03:56:19;;;;;;;29.90;19.05;;;;;;;-144.19;100.00;78670.22;6188532;23;20032;-87
2022/03/02 03:58:45;;;;;;;31.43;19.00;;;;;;;-144.19;100.00;78670.22;6187350;23;20019;-87
2022/03/02 04:01:12;;;;;;;30.10;18.83;;;;;;;-144.19;100.00;78664.31;6187946;23;20372;-87
2022/03/02 04:03:38;;;;;;;30.40;19.17;;;;;;;-144.19;100.00;78660.38;6187206;23;20021;-87
2022/03/02 04:06:05;;;;;;;29.97;19.40;;;;;;;-144.19;100.00;78656.44;6187757;23;20461;-87
2022/03/02 04:08:31;;;;;;;28.10;17.57;;;;;;;-144.19;100.00;78654.47;6214014;23;20487;-85
2022/03/02 04:10:58;;;;;;;30.05;19.00;;;;;;;-144.19;100.00;78642.66;6187957;23;20016;-85
2022/03/02 04:13:24;;;;;;;30.93;18.30;;;;;;;-144.19;100.00;78644.63;6213540;23;20020;-88
2022/03/02 04:15:50;;;;;;;31.23;18.40;;;;;;;-144.19;100.00;78658.41;6187641;23;20020;-86
2022/03/02 04:18:17;;;;;;;31.33;18.97;;;;;;;-144.19;100.00;78678.09;6187332;23;20016;-86
2022/03/02 04:20:43;;;;;;;26.10;16.53;;;;;;;-144.19;100.00;78682.03;6187474;23;20240;-85
2022/03/02 04:23:10;;;;;;;27.52;17.42;;;;;;;-144.19;100.00;78684.00;6187323;23;20024;-88
2022/03/02 04:25:36;;;;;;;28.80;19.07;;;;;;;-144.19;100.00;78689.91;6187603;23;20457;-87
2022/03/02 04:28:04;;;;;;;27.02;17.52;;;;;;;-144.19;100.00;78701.72;6186941;23;20023;-88
2022/03/02 04:30:31;;;;;;;27.45;17.48;;;;;;;-144.19;100.00;78709.63;6188159;23;20075;-87
2022/03/02 04:32:59;;;;;;;26.80;17.00;;;;;;;-144.19;100.00;78721.44;6187410;23;20027;-87
2022/03/02 04:35:25;;;;;;;29.98;18.13;;;;;;;-144.19;100.00;78725.38;6187657;23;20334;-86
2022/03/02 04:37:52;;;;;;;29.17;18.25;;;;;;;-144.19;100.00;78733.25;6187148;23;20457;-87
2022/03/02 04:40:19;;;;;;;30.05;19.38;;;;;;;-144.19;100.00;78727.34;6213292;23;20484;-85
2022/03/02 04:42:45;;;;;;;32.35;19.10;;;;;;;-144.19;100.00;78733.25;6186937;23;20021;-86
2022/03/02 04:45:12;;;;;;;30.67;17.87;;;;;;;-144.19;100.00;78737.19;6213928;23;20024;-87
2022/03/02 04:47:39;;;;;;;26.70;17.83;;;;;;;-144.19;100.00;78737.19;6187313;23;20560;-87
2022/03/02 04:50:32;;;;;;;27.75;18.17;;;;;;;-144.19;100.00;78741.13;6203919;23;20055;-85
2022/03/02 07:08:48;;;;;;;29.42;17.75;;;;;;;-144.19;100.00;78859.28;6144252;23;20330;-83
2022/03/02 07:58:01;;;;;;;32.58;18.48;;;;;;;-144.19;100.00;78766.72;5872711;24;20031;-85
2022/03/02 08:05:18;;;;;;;;;;;;;;;;;;;;;
2022/03/02 08:12:39;;;;;;;29.90;17.70;;;;;;;-144.19;100.00;78713.56;5859380;24;20086;-85
2022/03/02 08:15:41;;;;;;;;;;;;;;;;;;;;;
2022/03/02 08:18:51;;;;;;;26.65;16.85;;;;;;;-144.19;100.00;78682.03;6053959;23;20026;-85
2022/03/02 08:21:29;;;;;;;28.52;16.88;;;;;;;-144.19;100.00;78668.25;6088644;23;20050;-84
2022/03/02 08:24:14;;;;;;;30.38;18.05;;;;;;;-144.19;100.00;78654.47;6111895;23;20034;-85
2022/03/02 08:27:28;;;;;;;25.23;16.73;;;;;;;-144.19;100.00;78634.78;6107852;23;20026;-85
2022/03/02 08:30:03;;;;;;;27.48;17.55;;;;;;;-144.19;100.00;78630.84;6087151;23;20318;-85
2022/03/02 09:19:14;;;;;;;26.20;15.35;;;;;;;-144.19;100.00;78420.13;6168276;23;20094;-85
2022/03/02 09:33:43;;;;;;;25.65;15.80;;;;;;;-144.19;100.00;78396.47;5829175;24;20029;-83
2022/03/02 09:40:03;;;;;;;25.55;16.23;;;;;;;-144.19;100.00;78345.28;5863207;24;20525;-83
2022/03/02 09:43:24;;;;;;;25.55;16.70;;;;;;;-144.19;100.00;78327.56;5850069;24;20054;-83
2022/03/02 09:46:38;;;;;;;25.15;13.93;;;;;;;-144.19;100.00;78303.94;5906758;24;20075;-84
2022/03/02 09:50:06;;;;;;;22.90;15.23;;;;;;;-144.19;100.00;78280.28;5879315;24;20037;-83
2022/03/02 09:53:43;;;;;;;26.23;14.83;;;;;;;-144.19;98.78;78252.72;5826602;24;20031;-83
2022/03/02 09:56:46;;;;;;;22.58;14.27;;;;;;;-144.19;93.59;78235.00;5831483;24;20041;-82
2022/03/02 09:59:48;;;;;;;22.85;14.43;;;;;;;-144.19;89.10;78221.22;5853344;24;20036;-84
2022/03/02 10:02:42;;;;;;;22.48;13.70;;;;;;;-144.19;89.40;78211.38;5846963;24;20125;-84
2022/03/02 10:14:02;;;;;;;;;;;;;;;;;;;;;
2022/03/02 10:17:41;;;;;;;19.30;14.25;;;;;;;-144.19;84.34;78053.84;5924267;24;20044;-85
2022/03/02 10:24:59;;;;;;;;;;;;;;;;;;;;;
2022/03/02 10:36:34;;;;;;;22.88;14.07;;;;;;;-144.19;73.96;77839.19;5960246;23;20059;-85
2022/03/02 10:39:55;;;;;;;21.15;14.57;;;;;;;-144.19;71.03;77795.88;5934095;24;20029;-86
2022/03/02 10:43:05;;;;;;;19.23;12.35;;;;;;;-144.19;69.36;77673.81;5939183;24;20024;-86
2022/03/02 10:46:02;;;;;;;19.63;13.07;;;;;;;-144.19;69.69;77608.84;5968640;23;20008;-86
2022/03/02 10:51:50;;;;;;;21.42;13.18;;;;;;;-144.19;56.43;77508.41;6142181;23;19992;-85
2022/03/02 10:54:21;;;;;;;20.90;12.85;;;;;;;-144.19;60.38;77457.22;6158704;23;20350;-86
2022/03/02 10:56:55;;;;;;;20.63;13.13;;;;;;;-144.19;57.63;77339.09;6159201;23;20025;-86
2022/03/02 10:59:23;;;;;;;19.15;13.77;;;;;;;-144.19;54.71;77421.78;6185299;23;20023;-88
2022/03/02 11:01:51;;;;;;;21.35;13.88;;;;;;;-144.19;52.53;77268.22;6159622;23;20361;-86
2022/03/02 11:04:20;;;;;;;18.45;12.95;;;;;;;-144.19;51.56;77331.22;6160068;23;20029;-87
2022/03/02 11:06:47;;;;;;;21.80;13.23;;;;;;;-144.19;50.04;77177.66;6159242;23;20028;-86
2022/03/02 11:09:34;;;;;;;18.02;12.75;;;;;;;-144.19;49.49;77268.22;6185587;23;20470;-84
2022/03/02 11:12:01;;;;;;;19.45;13.10;;;;;;;-144.19;51.05;77087.09;6158661;23;20025;-85
2022/03/02 11:14:27;;;;;;;19.63;13.35;;;;;;;-144.19;48.79;77278.06;6186562;23;20092;-86
2022/03/02 11:17:13;;;;;;;20.13;13.60;;;;;;;-144.19;50.41;77163.88;6186880;23;20025;-86
2022/03/02 11:19:45;;;;;;;18.95;13.60;;;;;;;-144.19;47.62;77104.81;6187213;23;20028;-84
2022/03/02 11:22:20;;;;;;;20.60;13.02;;;;;;;-144.19;45.97;77120.56;6159863;23;20021;-88
2022/03/02 11:24:47;;;;;;;19.13;12.77;;;;;;;-144.19;43.96;77047.72;6162090;23;20028;-88
2022/03/02 11:27:43;;;;;;;;;;;;;;;-144.19;42.26;77000.47;6192365;23;20417;-87
2022/03/02 11:30:11;;;;;;;20.60;12.55;;;;;;;-144.19;44.54;77055.59;6176447;23;19922;-87
2022/03/02 11:32:41;;;;;;;18.73;12.20;;;;;;;-144.19;41.49;76976.84;6188688;23;20065;-88
2022/03/02 11:35:19;;;;;;;18.33;12.68;;;;;;;-144.19;43.00;76913.88;6186219;23;20040;-87
2022/03/02 11:37:57;;;;;;;18.23;12.68;;;;;;;-144.19;43.03;76823.31;6186128;23;20013;-87
2022/03/02 11:40:37;;;;;;;;;;;;;;;-144.19;41.22;76803.63;6187528;23;20080;-84
2022/03/02 11:43:19;;;;;;;18.70;12.73;;;;;;;-144.19;41.50;76837.09;6160568;23;20259;-85
2022/03/02 11:45:56;;;;;;;15.20;10.95;;;;;;;-144.19;37.82;76862.69;6190974;23;20029;-86
2022/03/02 11:48:26;;;;;;;17.88;10.95;;;;;;;-144.19;38.74;76933.56;6188197;23;20040;-84
2022/03/02 11:51:06;;;;;;;15.90;11.00;;;;;;;-144.19;37.79;76933.56;6189941;23;20059;-89
2022/03/02 11:53:39;;;;;;;13.00;9.82;;;;;;;-144.19;36.49;76925.69;6187118;23;20353;-84
2022/03/02 11:56:08;;;;;;;14.77;10.82;;;;;;;-144.19;36.13;76984.72;6186996;23;20017;-87
2022/03/02 11:58:59;;;;;;;15.52;10.10;;;;;;;-144.19;35.50;77087.09;6187560;23;20031;-86
2022/03/02 12:01:50;;;;;;;13.40;9.38;;;;;;;-144.19;36.39;76961.13;6164933;23;20047;-86
2022/03/02 12:04:28;;;;;;;14.25;10.57;;;;;;;-144.19;36.44;77047.72;6188598;23;20331;-84
2022/03/02 12:06:55;;;;;;;14.02;9.38;;;;;;;-144.19;35.23;76850.88;6188594;23;20041;-85
2022/03/02 12:09:33;;;;;;;12.23;8.88;;;;;;;-144.19;34.92;76860.72;6187261;23;20044;-84
2022/03/02 12:12:11;;;;;;;14.63;9.30;;;;;;;-144.19;33.57;76998.50;6186900;23;20029;-85
2022/03/02 12:14:50;;;;;;;13.00;9.50;;;;;;;-144.19;33.43;76970.97;6185885;23;20035;-87
2022/03/02 12:17:25;;;;;;;16.67;9.85;;;;;;;-144.19;34.08;77024.09;6186617;23;20536;-84
2022/03/02 12:19:56;;;;;;;14.63;9.35;;;;;;;-144.19;34.25;76919.78;6161240;23;20025;-87
2022/03/02 12:22:29;;;;;;;16.52;9.85;;;;;;;-144.19;35.18;76866.63;6161047;23;20017;-86
2022/03/02 12:24:57;;;;;;;13.63;9.82;;;;;;;-144.19;34.40;76972.94;6189096;23;20056;-86
2022/03/02 12:27:24;;;;;;;14.80;10.50;;;;;;;-144.19;35.46;76945.38;6161491;23;20469;-86
2022/03/02 12:29:59;;;;;;;13.98;9.93;;;;;;;-144.19;35.29;77004.41;6188275;23;20045;-86
2022/03/02 12:32:28;;;;;;;15.85;10.75;;;;;;;-144.19;35.21;77114.66;6188090;23;20025;-86
2022/03/02 12:34:55;;;;;;;13.75;9.63;;;;;;;-144.19;35.73;77008.34;6187632;23;20044;-85
2022/03/02 12:37:22;;;;;;;;;;;;;;;-144.19;34.82;77008.34;6188449;23;20025;-86
2022/03/02 12:39:50;;;;;;;12.32;8.60;;;;;;;-144.19;35.34;77130.41;6162615;23;19920;-88
2022/03/02 12:42:16;;;;;;;;;;;;;;;-144.19;34.75;77128.44;6188617;23;20027;-87
2022/03/02 12:44:48;;;;;;;13.48;8.93;;;;;;;-144.19;35.31;77098.91;6161404;23;19957;-85
2022/03/02 12:47:19;;;;;;;12.05;9.13;;;;;;;-144.19;34.94;77213.09;6185598;23;20452;-83
2022/03/02 12:49:50;;;;;;;12.82;8.50;;;;;;;-144.19;35.06;77161.91;6185604;23;20017;-85
2022/03/02 12:52:18;;;;;;;16.08;10.48;;;;;;;-144.19;35.03;77228.84;6186380;23;20104;-87
2022/03/02 12:54:45;;;;;;;16.00;9.38;;;;;;;-144.19;35.42;77280.03;6160464;23;20021;-86
2022/03/02 12:57:13;;;;;;;13.60;9.23;;;;;;;-144.19;35.78;77364.69;6186802;23;20024;-85
2022/03/02 12:59:41;;;;;;;15.48;9.90;;;;;;;-144.19;36.61;77346.97;6186313;23;20373;-87
2022/03/02 13:02:10;;;;;;;15.82;9.95;;;;;;;-144.19;37.06;77339.09;6187471;23;20047;-86
2022/03/02 13:04:59;;;;;;;13.82;9.38;;;;;;;-144.19;37.64;77343.03;6185169;23;20024;-85
2022/03/02 13:07:31;;;;;;;15.80;9.70;;;;;;;-144.19;38.76;77337.13;6160330;23;20052;-85
2022/03/02 13:10:02;;;;;;;18.10;10.90;;;;;;;-144.19;38.48;77319.41;6186398;23;20108;-86
2022/03/02 13:12:31;;;;;;;15.38;10.48;;;;;;;-144.19;38.82;77374.53;6187231;23;20104;-86
2022/03/02 13:15:00;;;;;;;14.98;10.35;;;;;;;-144.19;39.15;77394.22;6186749;23;20412;-86
2022/03/02 13:17:27;;;;;;;13.70;9.93;;;;;;;-144.19;39.72;77366.66;6188327;23;20029;-87
2022/03/02 13:19:58;;;;;;;14.85;10.52;;;;;;;-144.19;39.63;77360.75;6187326;23;20060;-86
2022/03/02 13:22:32;;;;;;;;;;;;;;;-144.19;40.42;77370.59;6193838;23;20036;-86
2022/03/02 13:25:05;;;;;;;15.45;10.80;;;;;;;-144.19;40.80;77390.28;6194687;23;19999;-85
2022/03/02 13:27:32;;;;;;;17.77;11.65;;;;;;;-144.19;41.60;77394.22;6170188;23;20081;-86
2022/03/02 13:30:11;;;;;;;16.15;11.30;;;;;;;-144.19;42.39;77406.03;6170253;23;20100;-87
2022/03/02 13:32:44;;;;;;;13.95;10.10;;;;;;;-144.19;41.53;77453.28;6192782;23;20028;-87
2022/03/02 13:35:33;;;;;;;15.75;10.35;;;;;;;-144.19;43.77;77406.03;6178045;23;20025;-87
2022/03/02 13:38:03;;;;;;;18.00;11.75;;;;;;;-144.19;42.58;77409.97;6170656;23;20036;-85
2022/03/02 13:40:32;;;;;;;20.17;10.65;;;;;;;-144.19;41.34;77471.00;6195451;23;20031;-86
2022/03/02 13:43:05;;;;;;;19.25;11.50;;;;;;;-144.19;42.81;77457.22;6170986;23;20072;-85
2022/03/02 13:45:33;;;;;;;15.90;11.00;;;;;;;-144.19;42.64;77433.59;6170691;23;20021;-87
2022/03/02 13:48:21;;;;;;;16.95;10.98;;;;;;;-144.19;42.40;77441.47;6195247;23;20024;-86
2022/03/02 13:51:08;;;;;;;18.75;11.52;;;;;;;-144.19;43.02;77431.63;6164103;23;20025;-86
2022/03/02 13:53:44;;;;;;;16.52;10.52;;;;;;;-144.19;42.22;77439.50;6192253;23;20069;-86
2022/03/02 13:56:30;;;;;;;17.65;11.90;;;;;;;-144.19;43.72;77382.41;6174451;23;20073;-87
2022/03/02 13:59:01;;;;;;;18.35;12.50;;;;;;;-144.19;43.78;77339.09;6192320;23;20021;-86
2022/03/02 14:01:31;;;;;;;19.48;12.88;;;;;;;-144.19;41.97;77287.91;6190831;23;20060;-86
2022/03/02 14:04:05;;;;;;;18.80;10.90;;;;;;;-144.19;42.08;77354.84;6164448;23;20124;-90
2022/03/02 14:06:36;;;;;;;17.40;10.95;;;;;;;-144.19;41.50;77327.28;6163487;23;20021;-88
2022/03/02 14:09:08;;;;;;;18.10;11.35;;;;;;;-144.19;41.55;77291.84;6187767;23;20017;-89
2022/03/02 14:11:47;;;;;;;17.17;11.00;;;;;;;-144.19;41.34;77303.66;6187921;23;20073;-89
2022/03/02 14:14:20;;;;;;;17.50;11.13;;;;;;;-144.19;42.63;77311.53;6189325;23;20085;-89
2022/03/02 14:17:10;;;;;;;15.80;10.50;;;;;;;-144.19;40.60;77299.72;6187183;23;20033;-89
2022/03/02 14:19:41;;;;;;;16.85;11.60;;;;;;;-144.19;40.84;77242.63;6161813;23;20088;-90
2022/03/02 14:22:11;;;;;;;16.38;10.93;;;;;;;-144.19;39.99;77213.09;6187823;23;20395;-88
2022/03/02 14:24:41;;;;;;;18.40;11.32;;;;;;;-144.19;41.23;77201.28;6162630;23;20480;-87
2022/03/02 14:27:17;;;;;;;16.17;11.68;;;;;;;-144.19;40.32;77193.41;6187948;23;20028;-88
2022/03/02 14:29:56;;;;;;;17.88;11.88;;;;;;;-144.19;39.38;77185.53;6187855;23;20018;-89
2022/03/02 14:32:37;;;;;;;19.58;11.90;;;;;;;-144.19;40.50;77093.00;6162383;23;20404;-89
2022/03/02 14:35:07;;;;;;;18.90;11.63;;;;;;;-144.19;39.18;77163.88;6186696;23;20326;-88
2022/03/02 14:37:41;;;;;;;19.10;12.00;;;;;;;-144.19;39.09;77055.59;6192265;23;20047;-90
2022/03/02 14:40:16;;;;;;;15.55;11.45;;;;;;;-144.19;39.06;77039.84;6169097;23;20052;-88
2022/03/02 14:42:52;;;;;;;16.95;11.45;;;;;;;-144.19;38.56;76986.69;6195101;23;20055;-89
2022/03/02 14:45:27;;;;;;;16.58;11.40;;;;;;;-144.19;38.10;77016.22;6192120;23;20025;-88
2022/03/02 14:47:57;;;;;;;18.38;11.52;;;;;;;-144.19;38.00;76933.56;6170989;23;20032;-87
2022/03/02 14:50:29;;;;;;;18.27;11.27;;;;;;;-144.19;37.52;77004.41;6197465;23;20025;-87
2022/03/02 14:53:05;;;;;;;19.17;12.10;;;;;;;-144.19;37.65;77071.34;6169715;23;20025;-83
2022/03/02 14:55:47;;;;;;;19.48;11.48;;;;;;;-144.19;37.67;77146.16;6194933;23;20738;-87
2022/03/02 14:58:29;;;;;;;18.80;12.90;;;;;;;-144.19;39.21;77157.97;6170115;23;20033;-86
2022/03/02 15:01:11;;;;;;;16.77;11.70;;;;;;;-144.19;38.42;77126.47;6195132;23;20080;-90
2022/03/02 15:03:44;;;;;;;18.98;11.63;;;;;;;-144.19;38.82;77047.72;6196495;23;20025;-85
2022/03/02 15:06:27;;;;;;;20.10;12.88;;;;;;;-144.19;38.82;77122.53;6173949;23;20031;-88
2022/03/02 15:09:01;;;;;;;19.00;12.40;;;;;;;-144.19;40.27;77177.66;6198592;23;20025;-89
2022/03/02 15:11:44;;;;;;;17.40;12.27;;;;;;;-144.19;40.01;77181.59;6199921;23;20032;-90
2022/03/02 15:17:04;;;;;;;17.20;12.27;;;;;;;-144.19;40.24;77211.13;6199508;23;20067;-90
2022/03/02 15:19:51;;;;;;;16.02;10.60;;;;;;;-144.19;40.96;77307.59;6196032;23;20064;-87
2022/03/02 15:22:24;;;;;;;18.00;11.00;;;;;;;-144.19;40.83;77299.72;6197101;23;20048;-91
2022/03/02 15:24:54;;;;;;;19.08;11.77;;;;;;;-144.19;40.90;77305.63;6173775;23;20040;-83
2022/03/02 15:27:23;;;;;;;18.00;12.00;;;;;;;-144.19;41.52;77299.72;6201336;23;20075;-88
2022/03/02 15:29:50;;;;;;;17.63;12.25;;;;;;;-144.19;41.85;77346.97;6170952;23;20055;-87
2022/03/02 15:32:21;;;;;;;20.83;12.00;;;;;;;-144.19;42.80;77329.25;6198959;23;20055;-88
2022/03/02 15:34:53;;;;;;;20.85;12.43;;;;;;;-144.19;44.36;77295.78;6171031;23;20021;-85
2022/03/02 15:37:28;;;;;;;19.33;12.15;;;;;;;-144.19;44.66;77303.66;6197237;23;20052;-87
2022/03/02 15:39:58;;;;;;;22.10;13.30;;;;;;;-144.19;44.78;77299.72;6176325;23;20033;-86
2022/03/02 15:42:31;;;;;;;18.92;12.45;;;;;;;-144.19;43.97;77321.38;6198378;23;20025;-86
2022/03/02 15:45:09;;;;;;;18.23;12.30;;;;;;;-144.19;45.38;77315.47;6173209;23;20028;-85
2022/03/02 15:47:38;;;;;;;17.85;12.32;;;;;;;-144.19;46.22;77295.78;6174104;23;20438;-86
2022/03/02 15:50:09;;;;;;;20.98;13.05;;;;;;;-144.19;45.81;77303.66;6198529;23;20023;-86
2022/03/02 15:52:43;;;;;;;22.45;13.65;;;;;;;-144.19;45.14;77272.16;6196436;23;20084;-86
2022/03/02 15:55:32;;;;;;;24.85;14.35;;;;;;;-144.19;44.67;77291.84;6194553;23;20027;-90
2022/03/02 15:58:03;;;;;;;22.23;14.05;;;;;;;-144.19;45.81;77256.41;6169682;23;20035;-87
2022/03/02 16:00:32;;;;;;;19.20;13.10;;;;;;;-144.19;45.10;77258.38;6169559;23;20099;-89
2022/03/02 16:02:59;;;;;;;21.63;13.63;;;;;;;-144.19;46.26;77230.81;6169268;23;20100;-88
2022/03/02 16:05:30;;;;;;;21.13;13.63;;;;;;;-144.19;45.49;77205.22;6170172;23;20048;-86
2022/03/02 16:08:05;;;;;;;21.42;13.93;;;;;;;-144.19;45.50;77220.97;6197731;23;20049;-86
2022/03/02 16:10:31;;;;;;;21.60;14.15;;;;;;;-144.19;45.47;77244.59;6172434;23;20032;-87
2022/03/02 16:12:58;;;;;;;20.48;13.68;;;;;;;-144.19;45.98;77283.97;6199260;23;20421;-86
2022/03/02 16:15:52;;;;;;;20.53;13.93;;;;;;;-144.19;47.22;77327.28;6198676;23;20057;-85